الصفحة الرئيسية
METAR-TAF:

METAR-TAF

مطار :

فورونيج, روسيا

دائرة عرض: 51-39N, خط طول: 039-15E, ارتفاع: 154 متر

مراقبة الطقس الحالي

تاريخ ووقت الإصدار 23 دقيقة قبل الساعة 08:30UTC
ريح 10 عقدة من الشمال
درجة الحرارة 26°درجة مئوية
الرطوبة 45%
ضغط 1007 hPa
الرؤية 10 كم أو أكثر
الغيوم لا تقل 1500 م ولا وجود لمزنة ركامية السحاب الأسود

METAR: UUOO 250830Z 35005MPS CAVOK 26/13 Q1007 R30/010070 NOSIG RMK QFE742

زمن: 11:53 (08:53 UTC)

توقعات

تاريخ ووقت الإصدار 53 دقيقة قبل الساعة 08:00UTC
التوقعات صالحة من25 الساعة 09 UTC إلى 25 الساعة 18 UTC
ريح 6 عقدة من الشمال/الشمال الغربي تتزايد حتى 16 عقدة
الرؤية 10 كم أو أكثر
غيوم مفككة على ارتفاع 3000 قدم, مزنة ركامية.
نظرية الاحتمالات 40% :
مؤقت
من 25 الساعة 11 UTC إلى 25 الساعة 18 UTC
عاصفة رعدية, مطر خفيف,

TAF: UUOO 250800Z 2509/2518 33003G08MPS 9999 BKN030CB PROB40 TEMPO 2511/2518 -TSRA

أرصاد الطقس والتوقعات من أكثر من 4000 مطار (تقارير الطقس للمطار METAR والتنبؤ بالطقس بالمطارTAF).

المحطات المتاحة هي النقط الصفراء والحمراء على الخريطة.

حرك المؤشر فوق النقطة لمعرفة اسم المحطة.

ثم انقر لمعرفة أرصاد وتوقعات الطقس.

لتغيير الخارطة: اضغط على الأزرار الخضراء مع رمز الصليب الأسود للتكبير. على الزر الأخضر مع شرطة للتصغير، أو على الأسهم الخضراء للخرائط المجاورة.


METAR-TAF: